Terminal Aerodrome Forecast
Issued by NWS

Home | Current Version | Previous Version | Text Only | Print | Product List | Glossary On
Versions: 1 2 3 4 5 6 7 8 9 10 11 12 13 14 15 16
000
FTUS43 KBIS 241143 AAA
TAFDIK
TAF AMD
KDIK 241143Z 2412/2512 34008KT P6SM SCT200
     FM241500 36008KT P6SM FEW030
     FM242100 VRB06KT P6SM FEW050
     FM250100 20010KT P6SM SKC=

USA.gov is the U.S. government's official web portal to all federal, state and local government web resources and services.